createdAt,value
2018-09-02T00:02:55.241Z,101169.03
2018-09-02T00:12:57.749Z,101160.62
2018-09-02T00:23:01.274Z,101165.56
2018-09-02T00:33:03.886Z,101154.69
2018-09-02T00:43:06.355Z,101145.77
2018-09-02T00:53:08.751Z,101140.61
2018-09-02T01:03:11.532Z,101146.55
2018-09-02T01:13:14.413Z,101140.64
2018-09-02T01:23:17.161Z,101139.14
2018-09-02T01:33:19.592Z,101147.12
2018-09-02T01:43:22.100Z,101133.31
2018-09-02T01:53:24.568Z,101137.66
2018-09-02T02:03:27.181Z,101123.09
2018-09-02T02:13:30.317Z,101121.16
2018-09-02T02:23:33.260Z,101106.62
2018-09-02T02:33:35.728Z,101103.25
2018-09-02T02:43:38.265Z,101094.06
2018-09-02T02:53:40.900Z,101096.50
2018-09-02T03:03:43.324Z,101095.30
2018-09-02T03:13:45.852Z,101093.70
2018-09-02T03:23:48.405Z,101083.87
2018-09-02T03:33:51.519Z,101080.06
2018-09-02T03:43:54.051Z,101072.27
2018-09-02T03:53:57.371Z,101063.45
2018-09-02T04:03:59.880Z,101062.20
2018-09-02T04:14:03.096Z,101052.90
2018-09-02T04:24:05.617Z,101044.92
2018-09-02T04:34:08.040Z,101044.41
2018-09-02T04:44:10.355Z,101037.93
2018-09-02T04:54:13.212Z,101034.93
2018-09-02T05:04:15.707Z,101049.91
2018-09-02T05:14:19.522Z,101051.80
2018-09-02T05:24:21.912Z,101053.98
2018-09-02T05:34:24.334Z,101046.64
2018-09-02T05:44:26.829Z,101044.00
2018-09-02T05:54:29.321Z,101036.03
2018-09-02T06:04:31.861Z,101039.84
2018-09-02T06:14:34.400Z,101031.33
2018-09-02T06:24:37.128Z,101029.23
2018-09-02T06:34:39.573Z,101032.19
2018-09-02T06:44:41.975Z,101038.31
2018-09-02T06:54:44.964Z,101043.91
2018-09-02T07:04:47.368Z,101055.27
2018-09-02T07:14:50.407Z,101056.30
2018-09-02T07:24:52.816Z,101057.14
2018-09-02T07:34:55.946Z,101052.64
2018-09-02T07:44:58.303Z,101074.27
2018-09-02T07:55:00.929Z,101064.00
2018-09-02T08:05:03.554Z,101060.52
2018-09-02T08:15:06.225Z,101058.77
2018-09-02T08:25:08.647Z,101055.87
2018-09-02T08:35:11.117Z,101060.28
2018-09-02T08:45:13.422Z,101058.48
2018-09-02T08:55:15.782Z,101065.05
2018-09-02T09:05:18.295Z,101049.22
2018-09-02T09:15:20.837Z,101051.41
2018-09-02T09:25:23.308Z,101037.28
2018-09-02T09:35:25.671Z,101046.70
2018-09-02T09:45:28.176Z,101035.59
2018-09-02T09:55:30.548Z,101033.84
2018-09-02T10:05:33.155Z,101024.69
2018-09-02T10:15:36.069Z,101034.16
2018-09-02T10:25:38.502Z,101005.90
2018-09-02T10:35:40.992Z,101010.13
2018-09-02T10:45:43.320Z,101013.74
2018-09-02T10:55:46.447Z,100995.70
2018-09-02T11:05:48.898Z,100987.55
2018-09-02T11:15:51.354Z,100984.42
2018-09-02T11:25:53.848Z,100980.16
2018-09-02T11:35:56.383Z,100976.08
2018-09-02T11:45:59.048Z,100972.00
2018-09-02T11:56:01.485Z,100972.92
2018-09-02T12:06:04.005Z,100986.78
2018-09-02T12:16:06.496Z,100978.25
2018-09-02T12:26:09.008Z,100985.08
2018-09-02T12:36:11.520Z,100980.70
2018-09-02T12:46:14.016Z,100960.95
2018-09-02T12:56:16.430Z,100952.25
2018-09-02T13:06:18.952Z,100946.16
2018-09-02T13:16:21.413Z,100935.88
2018-09-02T13:26:23.773Z,100942.20
2018-09-02T13:36:26.348Z,100934.80
2018-09-02T13:46:28.799Z,100934.02
2018-09-02T13:56:31.385Z,100939.73
2018-09-02T14:06:33.879Z,100930.38
2018-09-02T14:16:36.377Z,100916.35
2018-09-02T14:26:38.868Z,100912.37
2018-09-02T14:36:41.248Z,100923.02
2018-09-02T14:46:43.760Z,100922.03
2018-09-02T14:56:46.383Z,100905.42
2018-09-02T15:06:48.852Z,100911.31
2018-09-02T15:16:51.296Z,100891.67
2018-09-02T15:26:53.649Z,100886.75
2018-09-02T15:36:56.131Z,100896.77
2018-09-02T15:46:58.513Z,100879.49
2018-09-02T15:57:01.681Z,100886.70
2018-09-02T16:07:04.141Z,100893.73
2018-09-02T16:17:06.640Z,100896.26
2018-09-02T16:27:08.956Z,100876.59
2018-09-02T16:37:11.599Z,100876.02
2018-09-02T16:47:14.027Z,100867.28
2018-09-02T16:57:16.568Z,100861.97
2018-09-02T17:07:19.123Z,100869.42
2018-09-02T17:17:21.572Z,100865.20
2018-09-02T17:27:23.994Z,100868.47
2018-09-02T17:37:26.784Z,100858.59
2018-09-02T17:47:30.307Z,100852.32
2018-09-02T17:57:32.997Z,100839.95
2018-09-02T18:07:35.485Z,100835.54
2018-09-02T18:17:38.045Z,100830.98
2018-09-02T18:27:43.023Z,100834.74
2018-09-02T18:37:45.725Z,100830.29
2018-09-02T18:47:48.651Z,100823.80
2018-09-02T18:57:51.288Z,100817.41
2018-09-02T19:07:53.748Z,100811.98
2018-09-02T19:17:56.417Z,100810.88
2018-09-02T19:27:59.040Z,100813.61
2018-09-02T19:38:01.618Z,100809.16
2018-09-02T19:48:04.238Z,100823.60
2018-09-02T19:58:06.946Z,100803.11
2018-09-02T20:08:09.737Z,100799.86
2018-09-02T20:18:12.290Z,100784.54
2018-09-02T20:28:14.803Z,100791.78
2018-09-02T20:38:17.929Z,100782.84
2018-09-02T20:48:21.332Z,100773.90
2018-09-02T20:58:26.049Z,100778.50
2018-09-02T21:08:29.559Z,100766.36
2018-09-02T21:18:32.555Z,100752.30
2018-09-02T21:28:35.657Z,100741.38
2018-09-02T21:38:39.701Z,100711.40
2018-09-02T21:48:42.813Z,100689.42
2018-09-02T21:58:46.486Z,100659.39
2018-09-02T22:08:50.428Z,100678.70
2018-09-02T22:18:53.586Z,100669.72
2018-09-02T22:28:57.724Z,100689.16
2018-09-02T22:39:01.449Z,100684.41
2018-09-02T22:49:06.088Z,100677.98
2018-09-02T22:59:11.682Z,100656.27
2018-09-02T23:09:15.535Z,100649.08
2018-09-02T23:19:20.340Z,100642.73
2018-09-02T23:29:23.800Z,100650.80
2018-09-02T23:39:27.614Z,100631.55
2018-09-02T23:49:30.788Z,100607.03
2018-09-02T23:59:34.517Z,100613.08
